createdAt,value
2017-08-24T00:00:36.613Z,21.10
2017-08-24T00:03:04.188Z,21.10
2017-08-24T00:05:31.783Z,21.00
2017-08-24T00:07:59.396Z,20.90
2017-08-24T00:10:26.970Z,20.80
2017-08-24T00:12:54.546Z,20.80
2017-08-24T00:15:22.135Z,20.70
2017-08-24T00:17:50.468Z,20.50
2017-08-24T00:20:18.040Z,20.50
2017-08-24T00:22:46.030Z,20.60
2017-08-24T00:25:14.365Z,20.50
2017-08-24T00:27:41.949Z,20.50
2017-08-24T00:30:09.554Z,20.50
2017-08-24T00:32:37.122Z,20.50
2017-08-24T00:35:04.685Z,20.50
2017-08-24T00:37:32.272Z,20.50
2017-08-24T00:39:59.853Z,20.50
2017-08-24T00:42:27.421Z,20.50
2017-08-24T00:44:55.037Z,20.40
2017-08-24T00:47:22.619Z,20.40
2017-08-24T00:49:50.193Z,20.40
2017-08-24T00:52:17.788Z,20.30
2017-08-24T00:54:45.353Z,20.30
2017-08-24T00:57:12.921Z,20.30
2017-08-24T00:59:40.530Z,20.30
2017-08-24T01:02:08.113Z,20.20
2017-08-24T01:04:35.675Z,20.30
2017-08-24T01:07:03.304Z,20.20
2017-08-24T01:09:30.865Z,20.20
2017-08-24T01:11:58.449Z,20.20
2017-08-24T01:14:26.028Z,20.20
2017-08-24T01:16:53.601Z,20.20
2017-08-24T01:19:21.148Z,20.20
2017-08-24T01:21:48.753Z,20.20
2017-08-24T01:24:16.314Z,20.20
2017-08-24T01:26:43.882Z,20.10
2017-08-24T01:29:11.500Z,20.00
2017-08-24T01:31:39.088Z,20.10
2017-08-24T01:34:06.637Z,20.10
2017-08-24T01:36:34.252Z,20.10
2017-08-24T01:39:01.831Z,20.10
2017-08-24T01:41:29.390Z,20.10
2017-08-24T01:43:56.999Z,20.20
2017-08-24T01:46:24.566Z,20.10
2017-08-24T01:48:52.116Z,20.10
2017-08-24T01:51:19.733Z,20.10
2017-08-24T01:53:47.312Z,20.10
2017-08-24T01:56:14.886Z,20.10
2017-08-24T01:58:42.506Z,20.20
2017-08-24T02:01:10.078Z,20.20
2017-08-24T02:03:37.651Z,20.10
2017-08-24T02:06:05.370Z,20.10
2017-08-24T02:08:32.903Z,20.10
2017-08-24T02:11:00.454Z,20.00
2017-08-24T02:13:28.029Z,20.10
2017-08-24T02:15:55.564Z,20.10
2017-08-24T02:18:23.097Z,20.10
2017-08-24T02:20:50.672Z,20.10
2017-08-24T02:23:18.200Z,20.10
2017-08-24T02:25:45.732Z,20.10
2017-08-24T02:28:13.306Z,20.10
2017-08-24T02:30:40.833Z,20.10
2017-08-24T02:33:08.386Z,20.00
2017-08-24T02:35:35.946Z,20.10
2017-08-24T02:38:03.505Z,20.00
2017-08-24T02:40:31.063Z,20.00
2017-08-24T02:42:58.643Z,20.00
2017-08-24T02:45:26.197Z,20.00
2017-08-24T02:47:53.728Z,20.00
2017-08-24T02:50:21.304Z,20.00
2017-08-24T02:52:48.850Z,20.00
2017-08-24T02:55:16.383Z,19.90
2017-08-24T02:57:43.964Z,20.00
2017-08-24T03:00:11.508Z,20.00
2017-08-24T03:02:39.055Z,20.00
2017-08-24T03:05:06.637Z,20.00
2017-08-24T03:07:34.191Z,20.00
2017-08-24T03:10:01.727Z,20.00
2017-08-24T03:12:29.313Z,19.90
2017-08-24T03:14:56.848Z,19.90
2017-08-24T03:17:24.385Z,19.80
2017-08-24T03:19:51.964Z,19.90
2017-08-24T03:22:19.506Z,19.80
2017-08-24T03:24:47.044Z,19.80
2017-08-24T03:27:14.631Z,19.80
2017-08-24T03:29:42.169Z,19.80
2017-08-24T03:32:09.703Z,19.80
2017-08-24T03:34:37.279Z,19.80
2017-08-24T03:37:04.818Z,19.80
2017-08-24T03:39:32.344Z,19.80
2017-08-24T03:41:59.910Z,19.70
2017-08-24T03:44:27.440Z,19.70
2017-08-24T03:46:54.989Z,19.70
2017-08-24T03:49:22.548Z,19.50
2017-08-24T03:51:50.088Z,19.50
2017-08-24T03:54:17.638Z,19.40
2017-08-24T03:56:45.213Z,19.30
2017-08-24T03:59:12.750Z,19.10
2017-08-24T04:01:40.282Z,19.10
2017-08-24T04:04:07.867Z,19.00
2017-08-24T04:06:35.428Z,19.00
2017-08-24T04:09:02.965Z,19.00
2017-08-24T04:11:31.297Z,18.80
2017-08-24T04:13:58.855Z,18.80
2017-08-24T04:16:26.409Z,18.90
2017-08-24T04:18:53.986Z,18.90
2017-08-24T04:21:21.517Z,18.90
2017-08-24T04:23:49.052Z,18.90
2017-08-24T04:26:16.616Z,18.80
2017-08-24T04:28:44.155Z,18.80
2017-08-24T04:31:11.690Z,18.80
2017-08-24T04:33:39.254Z,18.80
2017-08-24T04:36:06.868Z,18.90
2017-08-24T04:38:34.408Z,18.80
2017-08-24T04:41:02.023Z,18.90
2017-08-24T04:43:29.548Z,18.80
2017-08-24T04:45:57.089Z,18.80
2017-08-24T04:48:24.645Z,18.80
2017-08-24T04:50:52.191Z,18.80
2017-08-24T04:53:19.746Z,18.80
2017-08-24T04:55:47.315Z,18.80
2017-08-24T04:58:14.862Z,18.70
2017-08-24T05:00:42.392Z,18.80
2017-08-24T05:03:09.980Z,18.80
2017-08-24T05:05:37.526Z,18.70
2017-08-24T05:08:05.065Z,18.70
2017-08-24T05:10:32.644Z,18.70
2017-08-24T05:13:00.191Z,18.80
2017-08-24T05:15:27.743Z,18.80
2017-08-24T05:17:55.313Z,18.80
2017-08-24T05:20:22.848Z,18.90
2017-08-24T05:22:50.377Z,18.90
2017-08-24T05:25:17.945Z,18.90
2017-08-24T05:27:45.544Z,18.80
2017-08-24T05:30:13.082Z,18.80
2017-08-24T05:32:40.996Z,18.80
2017-08-24T05:35:08.525Z,18.80
2017-08-24T05:37:36.071Z,18.80
2017-08-24T05:40:03.633Z,18.80
2017-08-24T05:42:31.175Z,18.80
2017-08-24T05:44:58.709Z,18.80
2017-08-24T05:47:26.284Z,18.90
2017-08-24T05:49:53.832Z,18.90
2017-08-24T05:52:21.364Z,18.80
2017-08-24T05:54:48.942Z,18.80
2017-08-24T05:57:16.489Z,18.90
2017-08-24T05:59:44.039Z,18.90
2017-08-24T06:02:11.610Z,18.90
2017-08-24T06:04:39.149Z,18.90
2017-08-24T06:07:06.676Z,18.90
2017-08-24T06:09:34.228Z,19.00
2017-08-24T06:12:01.770Z,19.00
2017-08-24T06:14:29.296Z,19.00
2017-08-24T06:16:56.902Z,19.10
2017-08-24T06:19:24.443Z,19.20
2017-08-24T06:21:51.992Z,19.20
2017-08-24T06:24:19.578Z,19.20
2017-08-24T06:26:47.123Z,19.20
2017-08-24T06:29:14.661Z,19.20
2017-08-24T06:31:42.243Z,19.30
2017-08-24T06:34:09.797Z,19.30
2017-08-24T06:36:37.358Z,19.30
2017-08-24T06:39:04.946Z,19.40
2017-08-24T06:41:33.254Z,19.40
2017-08-24T06:44:00.793Z,19.40
2017-08-24T06:46:28.357Z,19.40
2017-08-24T06:48:55.914Z,19.30
2017-08-24T06:51:23.463Z,19.20
2017-08-24T06:53:51.023Z,19.10
2017-08-24T06:56:18.588Z,19.10
2017-08-24T06:58:46.130Z,19.10
2017-08-24T07:01:13.698Z,19.10
2017-08-24T07:03:41.227Z,19.10
2017-08-24T07:06:08.769Z,19.00
2017-08-24T07:08:36.349Z,19.10
2017-08-24T07:11:03.899Z,19.10
2017-08-24T07:13:31.438Z,19.20
2017-08-24T07:15:59.784Z,19.40
2017-08-24T07:18:27.332Z,19.40
2017-08-24T07:20:54.882Z,19.50
2017-08-24T07:23:22.456Z,19.50
2017-08-24T07:25:50.010Z,19.50
2017-08-24T07:28:17.572Z,19.60
2017-08-24T07:30:45.142Z,19.60
2017-08-24T07:33:12.688Z,19.60
2017-08-24T07:35:40.220Z,19.60
2017-08-24T07:38:07.799Z,19.60
2017-08-24T07:40:35.338Z,19.60
2017-08-24T07:43:02.895Z,19.60
2017-08-24T07:45:30.479Z,19.60
2017-08-24T07:47:58.034Z,19.70
2017-08-24T07:50:25.569Z,19.80
2017-08-24T07:52:53.147Z,19.80
2017-08-24T07:55:21.482Z,20.10
2017-08-24T07:57:49.019Z,20.00
2017-08-24T08:00:16.617Z,20.20
2017-08-24T08:02:44.163Z,20.20
2017-08-24T08:05:11.715Z,20.10
2017-08-24T08:07:39.281Z,20.00
2017-08-24T08:10:06.813Z,19.90
2017-08-24T08:12:34.348Z,19.70
2017-08-24T08:15:01.933Z,19.80
2017-08-24T08:17:29.501Z,19.90
2017-08-24T08:19:57.027Z,20.00
2017-08-24T08:22:24.591Z,20.00
2017-08-24T08:24:52.129Z,20.00
2017-08-24T08:27:19.685Z,20.10
2017-08-24T08:29:47.263Z,20.20
2017-08-24T08:32:14.816Z,20.00
2017-08-24T08:34:42.353Z,20.20
2017-08-24T08:37:09.938Z,20.40
2017-08-24T08:39:37.476Z,20.50
2017-08-24T08:42:05.025Z,20.70
2017-08-24T08:44:32.673Z,20.70
2017-08-24T08:47:00.172Z,21.00
2017-08-24T08:49:27.724Z,21.20
2017-08-24T08:51:55.308Z,21.40
2017-08-24T08:54:22.845Z,21.60
2017-08-24T08:56:50.390Z,21.50
2017-08-24T08:59:17.971Z,21.70
2017-08-24T09:01:45.524Z,21.90
2017-08-24T09:04:13.085Z,22.00
2017-08-24T09:06:40.649Z,22.10
2017-08-24T09:09:08.186Z,22.20
2017-08-24T09:11:35.726Z,22.20
2017-08-24T09:14:03.300Z,22.10
2017-08-24T09:16:30.845Z,21.90
2017-08-24T09:18:58.397Z,21.90
2017-08-24T09:21:25.967Z,21.80
2017-08-24T09:23:53.514Z,21.80
2017-08-24T09:26:21.055Z,21.80
2017-08-24T09:28:48.635Z,21.70
2017-08-24T09:31:16.168Z,21.70
2017-08-24T09:33:43.707Z,21.70
2017-08-24T09:36:11.280Z,21.90
2017-08-24T09:38:38.843Z,22.00
2017-08-24T09:41:06.377Z,21.80
2017-08-24T09:43:33.959Z,21.80
2017-08-24T09:46:01.493Z,21.60
2017-08-24T09:48:29.059Z,21.70
2017-08-24T09:50:56.646Z,21.90
2017-08-24T09:53:24.176Z,22.00
2017-08-24T09:55:51.704Z,22.20
2017-08-24T09:58:19.272Z,22.10
2017-08-24T10:00:46.836Z,22.10
2017-08-24T10:03:14.392Z,22.10
2017-08-24T10:05:41.969Z,22.20
2017-08-24T10:08:09.552Z,22.10
2017-08-24T10:10:37.126Z,22.10
2017-08-24T10:13:04.720Z,22.10
2017-08-24T10:15:32.262Z,22.20
2017-08-24T10:17:59.803Z,22.30
2017-08-24T10:20:27.386Z,22.30
2017-08-24T10:22:54.924Z,22.40
2017-08-24T10:25:22.465Z,22.50
2017-08-24T10:27:50.030Z,22.50
2017-08-24T10:30:17.658Z,22.70
2017-08-24T10:32:45.146Z,22.60
2017-08-24T10:35:12.733Z,22.60
2017-08-24T10:37:40.290Z,22.50
2017-08-24T10:40:07.829Z,22.50
2017-08-24T10:42:35.411Z,22.50
2017-08-24T10:45:03.741Z,22.50
2017-08-24T10:47:31.285Z,22.50
2017-08-24T10:49:58.872Z,22.40
2017-08-24T10:52:26.433Z,22.40
2017-08-24T10:54:53.964Z,22.40
2017-08-24T10:57:21.533Z,22.20
2017-08-24T10:59:49.070Z,22.40
2017-08-24T11:02:16.613Z,22.60
2017-08-24T11:04:44.203Z,22.50
2017-08-24T11:07:11.791Z,22.50
2017-08-24T11:09:41.042Z,22.60
2017-08-24T11:12:08.613Z,22.50
2017-08-24T11:14:36.154Z,22.60
2017-08-24T11:17:03.739Z,22.70
2017-08-24T11:19:32.088Z,22.90
2017-08-24T11:21:59.632Z,22.90
2017-08-24T11:24:27.190Z,22.90
2017-08-24T11:26:54.750Z,23.10
2017-08-24T11:29:22.304Z,23.20
2017-08-24T11:31:49.866Z,23.30
2017-08-24T11:34:17.491Z,23.50
2017-08-24T11:36:45.029Z,23.60
2017-08-24T11:39:12.605Z,23.70
2017-08-24T11:41:40.173Z,23.70
2017-08-24T11:44:07.725Z,23.70
2017-08-24T11:46:35.360Z,23.80
2017-08-24T11:49:02.978Z,23.90
2017-08-24T11:51:30.605Z,23.90
2017-08-24T11:53:58.215Z,23.90
2017-08-24T11:56:25.818Z,23.90
2017-08-24T11:58:53.354Z,24.00
2017-08-24T12:01:20.910Z,23.80
2017-08-24T12:03:48.484Z,23.90
2017-08-24T12:06:16.025Z,24.00
2017-08-24T12:08:43.560Z,24.00
2017-08-24T12:11:11.157Z,24.30
2017-08-24T12:13:38.752Z,24.40
2017-08-24T12:16:06.307Z,24.60
2017-08-24T12:18:33.954Z,24.80
2017-08-24T12:21:01.518Z,24.90
2017-08-24T12:23:29.110Z,24.90
2017-08-24T12:25:56.715Z,24.60
2017-08-24T12:28:24.313Z,24.60
2017-08-24T12:30:51.869Z,24.60
2017-08-24T12:33:19.436Z,24.70
2017-08-24T12:35:46.973Z,24.70
2017-08-24T12:38:14.517Z,24.70
2017-08-24T12:40:42.132Z,24.70
2017-08-24T12:43:09.692Z,24.40
2017-08-24T12:45:37.246Z,24.40
2017-08-24T12:48:04.812Z,24.50
2017-08-24T12:50:32.356Z,24.50
2017-08-24T12:52:59.881Z,24.60
2017-08-24T12:55:27.444Z,24.70
2017-08-24T12:57:55.072Z,24.70
2017-08-24T13:00:22.635Z,24.80
2017-08-24T13:02:50.197Z,24.70
2017-08-24T13:05:17.731Z,24.50
2017-08-24T13:07:45.283Z,24.60
2017-08-24T13:10:12.873Z,24.50
2017-08-24T13:12:40.403Z,24.60
2017-08-24T13:15:07.961Z,24.60
2017-08-24T13:17:35.536Z,24.50
2017-08-24T13:20:03.074Z,24.50
2017-08-24T13:22:30.629Z,24.40
2017-08-24T13:24:58.211Z,24.20
2017-08-24T13:27:25.744Z,24.00
2017-08-24T13:29:53.280Z,23.90
2017-08-24T13:32:20.868Z,23.90
2017-08-24T13:34:49.170Z,23.90
2017-08-24T13:37:16.700Z,23.90
2017-08-24T13:39:44.284Z,23.70
2017-08-24T13:42:11.834Z,23.60
2017-08-24T13:44:39.366Z,23.70
2017-08-24T13:47:06.928Z,23.70
2017-08-24T13:49:34.463Z,23.50
2017-08-24T13:52:01.997Z,23.40
2017-08-24T13:54:29.581Z,23.50
2017-08-24T13:56:57.136Z,23.50
2017-08-24T13:59:24.676Z,23.70
2017-08-24T14:01:53.004Z,23.80
2017-08-24T14:04:20.558Z,23.70
2017-08-24T14:06:48.131Z,23.80
2017-08-24T14:09:15.719Z,23.90
2017-08-24T14:11:43.255Z,23.90
2017-08-24T14:14:10.798Z,24.10
2017-08-24T14:16:38.388Z,24.00
2017-08-24T14:19:05.949Z,24.00
2017-08-24T14:21:33.486Z,24.10
2017-08-24T14:24:01.079Z,24.20
2017-08-24T14:26:28.642Z,24.20
2017-08-24T14:28:56.177Z,24.20
2017-08-24T14:31:23.752Z,24.30
2017-08-24T14:33:51.298Z,24.30
2017-08-24T14:36:18.851Z,24.30
2017-08-24T14:38:47.277Z,24.10
2017-08-24T14:41:14.860Z,24.10
2017-08-24T14:43:42.391Z,24.10
2017-08-24T14:46:09.954Z,24.10
2017-08-24T14:48:37.484Z,24.30
2017-08-24T14:51:05.035Z,24.30
2017-08-24T14:53:32.616Z,24.40
2017-08-24T14:56:00.167Z,24.50
2017-08-24T14:58:27.710Z,24.50
2017-08-24T15:00:56.055Z,24.50
2017-08-24T15:03:23.592Z,24.50
2017-08-24T15:05:51.126Z,24.60
2017-08-24T15:08:18.711Z,24.60
2017-08-24T15:10:46.354Z,24.60
2017-08-24T15:13:13.905Z,24.70
2017-08-24T15:15:41.491Z,24.80
2017-08-24T15:18:09.026Z,24.70
2017-08-24T15:20:36.577Z,24.50
2017-08-24T15:23:04.143Z,24.50
2017-08-24T15:25:31.689Z,24.50
2017-08-24T15:27:59.234Z,24.40
2017-08-24T15:30:26.808Z,24.40
2017-08-24T15:32:54.348Z,24.40
2017-08-24T15:35:21.896Z,24.50
2017-08-24T15:37:49.471Z,24.40
2017-08-24T15:40:17.005Z,24.40
2017-08-24T15:42:44.545Z,24.40
2017-08-24T15:45:12.116Z,24.30
2017-08-24T15:47:39.655Z,24.20
2017-08-24T15:50:07.207Z,24.30
2017-08-24T15:52:34.787Z,24.30
2017-08-24T15:55:02.340Z,24.20
2017-08-24T15:57:29.901Z,24.30
2017-08-24T15:59:57.475Z,24.10
2017-08-24T16:02:25.007Z,24.00
2017-08-24T16:04:53.332Z,23.90
2017-08-24T16:07:20.911Z,23.90
2017-08-24T16:09:48.442Z,24.00
2017-08-24T16:12:15.996Z,24.00
2017-08-24T16:14:43.552Z,24.10
2017-08-24T16:17:11.084Z,24.10
2017-08-24T16:19:38.608Z,24.10
2017-08-24T16:22:06.173Z,23.90
2017-08-24T16:24:33.707Z,23.90
2017-08-24T16:27:01.249Z,23.90
2017-08-24T16:29:28.809Z,23.90
2017-08-24T16:31:57.125Z,23.70
2017-08-24T16:34:24.664Z,23.70
2017-08-24T16:36:52.251Z,23.70
2017-08-24T16:39:19.802Z,23.70
2017-08-24T16:41:47.354Z,23.70
2017-08-24T16:44:14.934Z,23.70
2017-08-24T16:46:42.468Z,23.70
2017-08-24T16:49:10.016Z,23.60
2017-08-24T16:51:37.594Z,23.60
2017-08-24T16:54:05.142Z,23.60
2017-08-24T16:56:33.461Z,23.80
2017-08-24T16:59:01.043Z,23.80
2017-08-24T17:01:28.573Z,23.80
2017-08-24T17:03:56.134Z,23.70
2017-08-24T17:06:23.729Z,23.70
2017-08-24T17:08:51.288Z,23.70
2017-08-24T17:11:18.841Z,23.70
2017-08-24T17:13:46.429Z,23.70
2017-08-24T17:16:13.985Z,23.60
2017-08-24T17:18:41.539Z,23.70
2017-08-24T17:21:09.112Z,23.60
2017-08-24T17:23:36.657Z,23.50
2017-08-24T17:26:04.180Z,23.30
2017-08-24T17:28:31.763Z,23.20
2017-08-24T17:30:59.293Z,23.20
2017-08-24T17:33:27.603Z,23.00
2017-08-24T17:35:55.187Z,23.00
2017-08-24T17:38:22.735Z,22.90
2017-08-24T17:40:50.289Z,22.80
2017-08-24T17:43:17.850Z,22.70
2017-08-24T17:45:45.396Z,22.70
2017-08-24T17:48:12.971Z,22.60
2017-08-24T17:50:40.536Z,22.60
2017-08-24T17:53:08.079Z,22.60
2017-08-24T17:55:35.643Z,22.60
2017-08-24T17:58:03.211Z,22.60
2017-08-24T18:00:30.744Z,22.60
2017-08-24T18:02:58.331Z,22.50
2017-08-24T18:05:25.890Z,22.50
2017-08-24T18:07:53.426Z,22.50
2017-08-24T18:10:20.948Z,22.50
2017-08-24T18:12:48.513Z,22.40
2017-08-24T18:15:16.060Z,22.40
2017-08-24T18:17:43.594Z,22.40
2017-08-24T18:20:11.178Z,22.30
2017-08-24T18:22:45.105Z,22.30
2017-08-24T18:25:13.141Z,22.30
2017-08-24T18:27:40.674Z,22.20
2017-08-24T18:30:08.225Z,22.20
2017-08-24T18:32:35.802Z,22.10
2017-08-24T18:35:03.355Z,22.10
2017-08-24T18:37:30.886Z,22.10
2017-08-24T18:39:58.457Z,22.00
2017-08-24T18:42:25.994Z,22.00
2017-08-24T18:44:53.532Z,21.90
2017-08-24T18:47:21.115Z,21.80
2017-08-24T18:49:48.676Z,21.80
2017-08-24T18:52:16.216Z,21.70
2017-08-24T18:54:43.800Z,21.70
2017-08-24T18:57:11.332Z,21.70
2017-08-24T18:59:49.526Z,21.60
2017-08-24T19:02:17.075Z,21.60
2017-08-24T19:04:44.622Z,21.60
2017-08-24T19:07:12.185Z,21.50
2017-08-24T19:09:39.759Z,21.50
2017-08-24T19:12:07.285Z,21.40
2017-08-24T19:14:34.862Z,21.40
2017-08-24T19:17:02.405Z,21.40
2017-08-24T19:29:26.844Z,21.00
2017-08-24T19:31:54.393Z,21.00
2017-08-24T19:34:21.963Z,20.80
2017-08-24T19:36:49.584Z,20.80
2017-08-24T19:39:17.120Z,20.70
2017-08-24T19:41:44.784Z,20.50
2017-08-24T19:44:12.373Z,20.50
2017-08-24T19:46:39.908Z,20.40
2017-08-24T19:49:07.512Z,20.40
2017-08-24T19:51:35.065Z,20.40
2017-08-24T19:54:02.619Z,20.40
2017-08-24T19:56:30.205Z,20.30
2017-08-24T19:58:57.921Z,20.10
2017-08-24T20:01:25.462Z,20.10
2017-08-24T20:03:52.998Z,20.20
2017-08-24T20:06:20.569Z,20.20
2017-08-24T20:08:48.876Z,20.00
2017-08-24T20:11:16.456Z,20.00
2017-08-24T20:13:44.022Z,19.90
2017-08-24T20:16:11.574Z,19.90
2017-08-24T20:18:39.265Z,19.90
2017-08-24T20:21:06.857Z,19.80
2017-08-24T20:23:34.411Z,19.70
2017-08-24T20:26:01.944Z,19.60
2017-08-24T20:28:29.583Z,19.60
2017-08-24T20:30:57.148Z,19.60
2017-08-24T20:33:24.709Z,19.70
2017-08-24T20:35:52.297Z,19.60
2017-08-24T20:38:19.845Z,19.60
2017-08-24T20:40:47.400Z,19.60
2017-08-24T20:43:14.975Z,19.70
2017-08-24T20:45:42.523Z,19.60
2017-08-24T20:48:10.077Z,19.60
2017-08-24T20:50:37.643Z,19.60
2017-08-24T20:53:05.188Z,19.60
2017-08-24T20:55:32.731Z,19.50
2017-08-24T20:58:00.313Z,19.50
2017-08-24T21:00:27.864Z,19.40
2017-08-24T21:02:55.396Z,19.40
2017-08-24T21:05:22.960Z,19.30
2017-08-24T21:07:50.513Z,19.30
2017-08-24T21:10:18.054Z,19.30
2017-08-24T21:12:45.627Z,19.30
2017-08-24T21:15:13.178Z,19.30
2017-08-24T21:17:40.728Z,19.20
2017-08-24T21:20:08.315Z,19.20
2017-08-24T21:22:35.841Z,19.10
2017-08-24T21:25:03.386Z,19.10
2017-08-24T21:27:30.942Z,19.00
2017-08-24T21:29:58.491Z,19.00
2017-08-24T21:32:26.021Z,18.90
2017-08-24T21:34:53.590Z,18.90
2017-08-24T21:37:21.136Z,18.80
2017-08-24T21:39:48.945Z,18.80
2017-08-24T21:42:17.284Z,18.70
2017-08-24T21:44:44.820Z,18.70
2017-08-24T21:47:12.343Z,18.60
2017-08-24T21:49:39.900Z,18.60
2017-08-24T21:52:07.425Z,18.50
2017-08-24T21:54:34.964Z,18.50
2017-08-24T21:57:02.548Z,18.50
2017-08-24T21:59:30.095Z,18.50
2017-08-24T22:01:57.650Z,18.50
2017-08-24T22:04:25.224Z,18.50
2017-08-24T22:06:52.753Z,18.50
2017-08-24T22:09:20.279Z,18.50
2017-08-24T22:11:47.851Z,18.40
2017-08-24T22:14:15.405Z,18.40
2017-08-24T22:16:42.932Z,18.30
2017-08-24T22:19:10.518Z,18.30
2017-08-24T22:21:38.049Z,18.30
2017-08-24T22:24:05.605Z,18.20
2017-08-24T22:26:33.164Z,18.20
2017-08-24T22:29:00.713Z,18.30
2017-08-24T22:31:29.027Z,18.30
2017-08-24T22:33:56.599Z,18.20
2017-08-24T22:36:24.134Z,18.20
2017-08-24T22:38:51.670Z,18.20
2017-08-24T22:41:19.244Z,18.20
2017-08-24T22:43:46.804Z,18.10
2017-08-24T22:46:14.341Z,18.10
2017-08-24T22:48:41.907Z,18.10
2017-08-24T22:51:09.428Z,18.00
2017-08-24T22:53:42.799Z,18.00
2017-08-24T22:56:15.902Z,18.00
2017-08-24T22:58:49.084Z,18.00
2017-08-24T23:01:22.234Z,17.90
2017-08-24T23:03:55.472Z,17.90
2017-08-24T23:06:22.998Z,17.80
2017-08-24T23:08:50.529Z,17.80
2017-08-24T23:11:18.108Z,17.80
2017-08-24T23:13:45.637Z,17.80
2017-08-24T23:16:13.190Z,17.80
2017-08-24T23:18:40.758Z,17.70
2017-08-24T23:21:08.288Z,17.70
2017-08-24T23:23:35.832Z,17.60
2017-08-24T23:26:03.415Z,17.60
2017-08-24T23:28:30.953Z,17.60
2017-08-24T23:30:58.490Z,17.60
2017-08-24T23:33:26.071Z,17.50
2017-08-24T23:35:53.622Z,17.50
2017-08-24T23:38:21.155Z,17.50
2017-08-24T23:40:48.723Z,17.50
2017-08-24T23:43:16.251Z,17.60
2017-08-24T23:45:43.797Z,17.60
2017-08-24T23:48:11.377Z,17.60
2017-08-24T23:50:38.912Z,17.60
2017-08-24T23:53:06.456Z,17.70
2017-08-24T23:55:34.013Z,17.70
2017-08-24T23:58:01.545Z,17.70
